Songkhla, Thailand

5:48 PM ICT on July 31, 2015 (GMT +0700)
Hat Yai International | | Change Station
CLOSE
Current Station
Airport
Location: Hat Yai,
Elevation: 89 ft
Nearby Weather Stations

Elev 89 ft 6.93 °N, 100.39 °E | Updated 18 minutes ago

Mostly Cloudy
Mostly Cloudy
84 °F
Feels Like 94 °F
N
0
Wind Variable Wind from North

Today
High -- | Low -- °F
--% Chance of Precip.
Yesterday
High -- | Low -- °F
Precip. -- in
6:10 AM 6:37 PM
Full, 100% visible
Pressure 29.77 in
Visibility 6.2 miles
Clouds Few 2000 ft
Mostly Cloudy 12000 ft
Mostly Cloudy 30000 ft
Heat Index 94 °F
Dew Point 77 °F
Humidity 79%
Rainfall 0.00 in
Snow Depth Not available.
UV 1 out of 12
Pollen Not available.
Air Quality Not available.
Flu Activity Not available.
METAR VTSS 311030Z 00000KT 9999 FEW020 BKN120 BKN300 29/25 Q1008 A2978 NOSIG

More Conditions Fewer Conditions

Pressure 29.77 in
Visibility 6.2 miles
Clouds Few 2000 ft
Mostly Cloudy 12000 ft
Mostly Cloudy 30000 ft
Heat Index 94 °F
Dew Point 77 °F
Humidity 79%
Rainfall 0.00 in
Snow Depth Not available.
UV 1 out of 12
Pollen Not available.
Air Quality Not available.
Flu Activity Not available.
METAR VTSS 311030Z 00000KT 9999 FEW020 BKN120 BKN300 29/25 Q1008 A2978 NOSIG

More Conditions Fewer Conditions

10-Day Weather Forecast

×

Almanac

Astronomy

Jul. 31, 2015 Rise Set
Actual Time
Civil Twilight
Nautical Twilight
Astronomical Twilight
Moon
Length of Visible Light
Length of Day
Tomorrow will be .
, % of the Moon is Illuminated

Today's Extremes

Country Highs Country Lows

Community

WunderPhotos

Upload Photos

1,842,641 photos uploaded!

WunderBlogs® & News

Nearby

Air Quality

  Air Quality AQ Index Pollutant
Not available.

Snow Depth

Station Depth Elevation

Earthquake Activity

City Distance Mag. Time & Date
Minimum magnitude displayed is 2.5.

Coastal Water Temperatures

Place Temperature

Stations

Nearby Weather Stations

Station Location Temp. Windchill Dew Point Humidity Wind Precip. Elev Updated Type